Time;durP1;ratioP1;P1;durP2;ratioP2;P2;SDS_P1;SDS_P2;PMS_P1;PMS_P2;Temp;Humidity;BMP_temperature;BMP_pressure;BME280_temperature;BME280_humidity;BME280_pressure;Samples;Min_cycle;Max_cycle;Signal;HPM_P1;HPM_P2
2023/08/18 00:00:19;;;;;;;1.90;1.17;;;19.50;99.90;;;;;;5073108;28;20044;-87
2023/08/18 00:02:45;;;;;;;3.13;1.20;;;19.50;99.90;;;;;;5072938;28;20117;-88
2023/08/18 00:05:12;;;;;;;1.65;0.90;;;19.50;99.90;;;;;;5025118;28;20093;-87
2023/08/18 00:07:41;;;;;;;2.05;1.25;;;19.40;99.90;;;;;;5052581;28;20102;-88
2023/08/18 00:10:08;;;;;;;0.75;0.63;;;19.50;99.90;;;;;;5066296;28;20058;-87
2023/08/18 00:12:35;;;;;;;2.08;1.30;;;19.50;99.90;;;;;;5060189;28;20056;-87
2023/08/18 00:15:02;;;;;;;1.63;0.80;;;19.50;99.90;;;;;;5062299;28;20057;-84
2023/08/18 00:17:29;;;;;;;1.85;0.80;;;19.50;99.90;;;;;;5034201;28;20598;-88
2023/08/18 00:19:56;;;;;;;1.45;0.90;;;19.50;99.90;;;;;;5061994;28;20048;-87
2023/08/18 00:22:23;;;;;;;1.13;0.60;;;19.50;99.90;;;;;;5070104;28;20049;-88
2023/08/18 00:24:51;;;;;;;1.55;0.85;;;19.50;99.90;;;;;;5053402;28;20049;-87
2023/08/18 00:27:18;;;;;;;2.10;1.17;;;19.50;99.90;;;;;;5069024;28;20129;-86
2023/08/18 00:29:45;;;;;;;1.25;0.80;;;19.50;99.90;;;;;;5044098;28;20085;-86
2023/08/18 00:32:11;;;;;;;2.58;1.17;;;19.50;99.90;;;;;;5051063;28;20049;-88
2023/08/18 00:34:38;;;;;;;2.20;1.55;;;19.50;1.00;;;;;;5065147;28;20052;-87
2023/08/18 00:37:05;;;;;;;2.83;1.15;;;19.50;1.00;;;;;;5054041;28;20140;-88
2023/08/18 00:39:32;;;;;;;1.80;1.08;;;19.60;1.00;;;;;;5071853;28;20516;-85
2023/08/18 00:41:58;;;;;;;1.33;0.90;;;19.60;1.00;;;;;;5069627;28;20595;-86
2023/08/18 00:44:25;;;;;;;2.20;0.93;;;19.60;1.00;;;;;;5059111;28;20051;-86
2023/08/18 00:46:52;;;;;;;1.10;0.90;;;19.60;1.00;;;;;;5069941;28;20052;-87
2023/08/18 00:49:19;;;;;;;0.70;0.57;;;19.60;1.00;;;;;;5070227;28;20380;-87
2023/08/18 00:51:46;;;;;;;1.23;0.60;;;19.70;1.00;;;;;;5087893;28;20052;-88
2023/08/18 00:54:13;;;;;;;1.60;0.70;;;19.60;1.00;;;;;;5104789;28;20098;-87
2023/08/18 00:56:40;;;;;;;1.85;0.75;;;19.60;1.00;;;;;;5069694;28;20048;-87
2023/08/18 00:59:07;;;;;;;0.82;0.45;;;19.60;1.00;;;;;;5088399;28;20112;-87
2023/08/18 01:01:34;;;;;;;3.13;1.00;;;19.60;1.00;;;;;;5069842;28;20078;-88
2023/08/18 01:04:01;;;;;;;1.85;0.73;;;19.60;1.00;;;;;;5060249;28;20079;-87
2023/08/18 01:06:28;;;;;;;2.33;1.15;;;19.60;1.00;;;;;;5050197;28;20045;-84
2023/08/18 01:08:55;;;;;;;2.35;1.00;;;19.60;1.00;;;;;;5057491;28;20049;-86
2023/08/18 01:11:22;;;;;;;1.38;0.70;;;19.60;1.00;;;;;;5047331;28;20683;-86
2023/08/18 01:14:16;;;;;;;1.48;0.90;;;19.60;1.00;;;;;;5071277;28;20070;-86
2023/08/18 01:16:48;;;;;;;1.85;1.00;;;19.60;1.00;;;;;;5049793;28;20473;-86
2023/08/18 01:19:14;;;;;;;1.70;0.90;;;19.60;1.00;;;;;;5070055;28;20076;-86
2023/08/18 01:21:43;;;;;;;1.52;0.85;;;19.60;1.00;;;;;;5051766;28;20060;-87
2023/08/18 01:24:09;;;;;;;1.70;0.82;;;19.60;3.00;;;;;;5036507;28;20048;-87
2023/08/18 01:26:36;;;;;;;1.52;0.85;;;19.60;8.80;;;;;;5068312;28;20063;-84
2023/08/18 01:29:03;;;;;;;2.53;1.20;;;19.60;11.80;;;;;;5053911;28;20086;-87
2023/08/18 01:31:31;;;;;;;1.17;0.95;;;19.60;11.20;;;;;;5079116;28;20079;-87
2023/08/18 01:34:04;;;;;;;2.28;1.05;;;19.60;1.00;;;;;;5069516;28;20049;-87
2023/08/18 01:36:38;;;;;;;2.33;1.52;;;19.60;3.70;;;;;;5036953;28;20117;-86
2023/08/18 01:39:06;;;;;;;0.80;0.60;;;19.60;39.00;;;;;;5061962;28;20105;-86
2023/08/18 01:41:33;;;;;;;1.20;1.00;;;19.60;13.70;;;;;;5079098;28;20053;-86
2023/08/18 01:44:00;;;;;;;2.65;1.13;;;19.60;9.30;;;;;;5061985;28;20048;-86
2023/08/18 01:46:27;;;;;;;2.40;1.42;;;19.60;26.70;;;;;;5052891;28;20048;-87
2023/08/18 01:48:54;;;;;;;2.28;1.45;;;19.60;54.10;;;;;;5069914;28;20133;-87
2023/08/18 01:51:20;;;;;;;1.50;1.10;;;19.60;60.60;;;;;;5071136;28;20041;-88
2023/08/18 01:53:47;;;;;;;2.88;1.30;;;19.60;65.30;;;;;;5071276;28;20102;-87
2023/08/18 01:56:14;;;;;;;2.33;0.98;;;19.60;59.80;;;;;;5044986;28;20763;-87
2023/08/18 01:58:41;;;;;;;2.78;1.20;;;19.60;52.00;;;;;;5070383;28;20051;-87
2023/08/18 02:01:08;;;;;;;1.45;0.98;;;19.60;59.20;;;;;;5059078;28;20137;-88
2023/08/18 02:03:35;;;;;;;4.60;1.77;;;19.60;99.90;;;;;;5071238;28;20122;-86
2023/08/18 02:06:03;;;;;;;3.05;0.80;;;19.60;99.90;;;;;;5071004;28;20056;-87
2023/08/18 02:08:30;;;;;;;2.55;0.88;;;19.60;99.30;;;;;;5071468;28;20048;-88
2023/08/18 02:11:03;;;;;;;1.42;1.02;;;19.60;99.80;;;;;;5071511;28;20053;-87
2023/08/18 02:13:31;;;;;;;2.72;1.38;;;19.50;99.90;;;;;;5068183;28;20474;-87
2023/08/18 02:15:58;;;;;;;3.65;1.63;;;19.50;99.90;;;;;;5072835;28;20040;-87
2023/08/18 02:18:25;;;;;;;3.28;1.38;;;19.50;99.90;;;;;;5069874;28;20143;-84
2023/08/18 02:20:58;;;;;;;2.28;1.23;;;19.50;99.90;;;;;;5071271;28;20064;-86
2023/08/18 02:23:25;;;;;;;0.95;0.77;;;19.60;99.90;;;;;;5069195;28;20079;-85
2023/08/18 02:26:01;;;;;;;2.08;0.93;;;19.60;99.90;;;;;;5068611;28;20052;-85
2023/08/18 02:28:28;;;;;;;2.28;1.27;;;19.60;99.90;;;;;;5070729;28;20063;-87
2023/08/18 02:31:02;;;;;;;1.98;0.90;;;19.60;99.90;;;;;;5072195;28;20545;-86
2023/08/18 02:33:29;;;;;;;2.58;1.40;;;19.60;99.90;;;;;;5071421;28;20488;-87
2023/08/18 02:35:56;;;;;;;2.53;1.30;;;19.60;99.90;;;;;;5079224;28;20472;-86
2023/08/18 02:38:22;;;;;;;2.67;1.05;;;19.60;99.90;;;;;;5071101;28;20101;-87
2023/08/18 02:40:49;;;;;;;1.17;0.90;;;19.60;99.90;;;;;;5066471;28;20407;-86
2023/08/18 02:43:16;;;;;;;1.67;0.90;;;19.60;99.90;;;;;;5072954;28;20048;-86
2023/08/18 02:45:43;;;;;;;2.60;0.80;;;19.60;99.90;;;;;;5072101;28;20079;-86
2023/08/18 02:48:13;;;;;;;2.13;1.30;;;19.60;99.90;;;;;;5071128;28;20072;-86
2023/08/18 02:50:40;;;;;;;1.88;1.02;;;19.60;99.90;;;;;;5064719;28;20114;-86
2023/08/18 02:53:07;;;;;;;1.73;0.90;;;19.70;99.90;;;;;;5066797;28;20141;-87
2023/08/18 02:55:34;;;;;;;2.25;1.20;;;19.70;99.90;;;;;;5072244;28;20053;-86
2023/08/18 02:58:01;;;;;;;2.40;1.40;;;19.60;99.90;;;;;;5072350;28;20048;-86
2023/08/18 03:00:28;;;;;;;1.83;1.30;;;19.60;99.90;;;;;;5068477;28;20058;-84
2023/08/18 03:02:55;;;;;;;2.95;1.42;;;19.60;99.90;;;;;;5093459;28;20077;-86
2023/08/18 03:05:23;;;;;;;3.47;1.83;;;19.50;99.90;;;;;;5067543;28;20511;-86
2023/08/18 03:07:49;;;;;;;1.23;0.80;;;19.50;99.90;;;;;;5068983;28;20045;-87
2023/08/18 03:10:16;;;;;;;2.35;1.52;;;19.50;99.90;;;;;;5071726;28;20045;-88
2023/08/18 03:12:43;;;;;;;2.58;1.40;;;19.50;99.90;;;;;;5058680;28;20045;-85
2023/08/18 03:15:10;;;;;;;2.25;1.40;;;19.50;99.90;;;;;;5053582;28;20048;-88
2023/08/18 03:17:37;;;;;;;3.33;2.03;;;19.50;99.90;;;;;;5054117;28;20094;-87
2023/08/18 03:20:04;;;;;;;3.47;2.33;;;19.50;99.90;;;;;;5070339;28;20059;-88
2023/08/18 03:22:34;;;;;;;4.13;2.53;;;19.40;1.00;;;;;;5071743;28;20395;-87
2023/08/18 03:25:02;;;;;;;4.45;2.80;;;19.40;1.00;;;;;;5070546;28;20060;-87
2023/08/18 03:27:29;;;;;;;3.85;1.80;;;19.40;1.00;;;;;;5072018;28;20049;-87
2023/08/18 03:29:56;;;;;;;4.25;2.92;;;19.40;1.00;;;;;;5071530;28;20056;-85
2023/08/18 03:32:23;;;;;;;5.13;3.13;;;19.30;19.50;;;;;;5070226;28;20044;-84
2023/08/18 03:34:52;;;;;;;4.78;2.83;;;19.30;64.60;;;;;;5070852;28;20136;-88
2023/08/18 03:37:19;;;;;;;3.85;2.55;;;19.20;84.40;;;;;;5069438;28;20139;-86
2023/08/18 03:39:46;;;;;;;3.70;2.42;;;19.20;96.00;;;;;;5069831;28;20045;-87
2023/08/18 03:42:13;;;;;;;2.63;2.22;;;19.20;99.90;;;;;;5055010;28;20490;-85
2023/08/18 03:44:40;;;;;;;3.13;1.63;;;19.30;99.90;;;;;;5066767;28;20069;-88
2023/08/18 03:47:07;;;;;;;2.08;1.60;;;19.30;99.90;;;;;;5106487;28;20365;-83
2023/08/18 03:49:33;;;;;;;2.58;1.60;;;19.40;98.70;;;;;;5074975;28;20083;-88
2023/08/18 03:52:00;;;;;;;2.63;1.55;;;19.50;58.00;;;;;;5075315;28;20477;-91
2023/08/18 03:54:27;;;;;;;2.83;1.75;;;19.50;75.60;;;;;;5069487;28;20056;-89
2023/08/18 03:56:54;;;;;;;2.38;1.80;;;19.50;58.90;;;;;;5083167;28;20116;-91
2023/08/18 03:59:21;;;;;;;2.63;1.65;;;19.50;61.50;;;;;;5069974;28;20045;-90
2023/08/18 04:01:48;;;;;;;2.78;2.00;;;19.50;83.40;;;;;;5083127;28;20144;-90
2023/08/18 04:04:15;;;;;;;2.13;1.60;;;19.50;89.50;;;;;;5075524;28;20508;-90
2023/08/18 04:06:41;;;;;;;1.90;1.50;;;19.50;93.10;;;;;;5058004;28;20463;-90
2023/08/18 04:09:15;;;;;;;3.55;1.73;;;19.50;99.90;;;;;;5077153;28;20044;-90
2023/08/18 04:11:43;;;;;;;2.55;1.60;;;19.50;99.90;;;;;;5055450;28;20380;-91
2023/08/18 04:14:10;;;;;;;2.30;1.30;;;19.50;99.90;;;;;;5081904;28;20147;-91
2023/08/18 04:16:36;;;;;;;2.88;1.92;;;19.50;99.90;;;;;;5067205;28;20422;-90
2023/08/18 04:19:03;;;;;;;2.42;2.10;;;19.50;99.90;;;;;;5063550;28;20045;-90
2023/08/18 04:21:30;;;;;;;4.65;2.60;;;19.50;99.90;;;;;;5102812;28;20565;-90
2023/08/18 04:23:57;;;;;;;2.40;1.90;;;19.40;99.90;;;;;;5095045;28;20045;-90
2023/08/18 04:26:24;;;;;;;3.22;2.30;;;19.40;99.90;;;;;;5065378;28;20110;-90
2023/08/18 04:28:52;;;;;;;3.65;3.03;;;19.40;99.90;;;;;;5073943;28;20109;-90
2023/08/18 04:31:19;;;;;;;4.65;2.88;;;19.40;99.90;;;;;;5076074;28;20040;-90
2023/08/18 04:33:46;;;;;;;3.17;2.45;;;19.30;99.90;;;;;;5075581;28;20041;-90
2023/08/18 04:36:13;;;;;;;3.13;2.45;;;19.30;99.90;;;;;;5075771;28;20076;-90
2023/08/18 04:38:40;;;;;;;2.85;2.30;;;19.30;99.90;;;;;;5065934;28;20068;-91
2023/08/18 04:41:09;;;;;;;2.92;2.30;;;19.30;99.90;;;;;;5069618;28;20099;-90
2023/08/18 04:43:35;;;;;;;3.00;2.70;;;19.30;99.90;;;;;;5072850;28;20569;-90
2023/08/18 04:46:03;;;;;;;3.75;2.67;;;19.30;99.90;;;;;;5064690;28;20088;-90
2023/08/18 04:48:29;;;;;;;3.50;2.97;;;19.30;99.90;;;;;;5067455;28;20041;-90
2023/08/18 04:50:56;;;;;;;3.45;3.00;;;19.30;99.90;;;;;;5063056;28;20643;-89
2023/08/18 04:53:23;;;;;;;5.57;4.97;;;19.30;99.90;;;;;;5062643;28;20098;-89
2023/08/18 04:55:50;;;;;;;5.72;4.30;;;19.20;99.90;;;;;;5074493;28;20056;-89
2023/08/18 04:58:17;;;;;;;5.25;4.00;;;19.20;99.90;;;;;;5074939;28;20041;-90
2023/08/18 05:00:44;;;;;;;3.58;3.03;;;19.20;99.90;;;;;;5075215;28;20044;-91
2023/08/18 05:03:11;;;;;;;5.95;5.32;;;19.20;99.90;;;;;;5064547;28;20056;-91
2023/08/18 05:05:40;;;;;;;5.85;4.68;;;19.20;99.90;;;;;;5075899;28;20131;-91
2023/08/18 05:08:07;;;;;;;5.50;5.00;;;19.10;99.90;;;;;;5071954;28;20045;-90
2023/08/18 05:10:33;;;;;;;5.55;4.85;;;19.10;99.90;;;;;;5052810;28;20522;-90
2023/08/18 05:13:00;;;;;;;5.05;4.55;;;19.10;99.90;;;;;;5062752;28;20080;-90
2023/08/18 05:15:28;;;;;;;7.47;5.95;;;19.20;99.90;;;;;;5052938;28;20147;-89
2023/08/18 05:17:55;;;;;;;4.95;4.45;;;19.20;99.90;;;;;;5074520;28;20137;-90
2023/08/18 05:20:22;;;;;;;8.02;5.95;;;19.20;99.90;;;;;;5070948;28;20051;-90
2023/08/18 05:22:49;;;;;;;5.68;4.90;;;19.20;99.90;;;;;;5067159;28;20055;-89
2023/08/18 05:25:16;;;;;;;6.50;4.88;;;19.20;99.90;;;;;;5065132;28;20094;-86
2023/08/18 05:27:43;;;;;;;5.28;4.63;;;19.20;99.90;;;;;;5072855;28;20044;-87
2023/08/18 05:30:10;;;;;;;5.85;4.63;;;19.20;99.90;;;;;;5054417;28;20122;-88
2023/08/18 05:32:36;;;;;;;5.47;4.80;;;19.30;99.90;;;;;;5071645;28;20576;-88
2023/08/18 05:35:04;;;;;;;4.13;3.70;;;19.40;99.90;;;;;;5072854;28;20108;-88
2023/08/18 05:37:31;;;;;;;5.78;4.78;;;19.50;99.90;;;;;;5072343;28;20109;-90
2023/08/18 05:39:57;;;;;;;5.38;4.88;;;19.50;99.90;;;;;;5069174;28;20052;-88
2023/08/18 05:42:24;;;;;;;5.40;4.22;;;19.60;99.90;;;;;;5070277;28;20052;-89
2023/08/18 05:44:51;;;;;;;5.80;3.80;;;19.60;99.90;;;;;;5071189;28;20066;-88
2023/08/18 05:47:18;;;;;;;4.15;3.60;;;19.60;99.90;;;;;;5062183;28;20044;-90
2023/08/18 05:49:44;;;;;;;4.75;4.25;;;19.60;98.40;;;;;;5093596;28;20040;-90
2023/08/18 05:52:11;;;;;;;5.00;4.25;;;19.60;99.90;;;;;;5072685;28;20068;-88
2023/08/18 05:54:38;;;;;;;4.13;3.53;;;19.50;99.90;;;;;;5077377;28;20108;-89
2023/08/18 05:57:05;;;;;;;3.40;3.10;;;19.60;99.90;;;;;;5075066;28;20047;-88
2023/08/18 05:59:32;;;;;;;2.92;2.63;;;19.60;99.90;;;;;;5074348;28;20052;-88
2023/08/18 06:01:58;;;;;;;3.72;3.35;;;19.60;63.10;;;;;;5074715;28;20059;-88
2023/08/18 06:04:25;;;;;;;4.10;3.70;;;19.60;68.90;;;;;;5052448;28;20056;-89
2023/08/18 06:06:52;;;;;;;3.20;2.30;;;19.60;10.30;;;;;;5069719;28;20048;-88
2023/08/18 06:09:19;;;;;;;4.03;3.05;;;19.70;1.70;;;;;;5071537;28;20085;-88
2023/08/18 06:11:46;;;;;;;3.42;2.55;;;19.70;1.00;;;;;;5064280;28;20129;-81
2023/08/18 06:14:13;;;;;;;4.88;3.47;;;19.80;1.00;;;;;;5055294;28;20052;-80
2023/08/18 06:16:39;;;;;;;3.88;2.95;;;19.70;1.00;;;;;;5058939;28;20086;-80
2023/08/18 06:19:08;;;;;;;3.42;2.85;;;19.70;1.00;;;;;;5056611;28;20137;-80
2023/08/18 06:21:35;;;;;;;3.47;2.75;;;19.80;1.00;;;;;;5040845;28;20048;-81
2023/08/18 06:24:02;;;;;;;2.78;2.33;;;19.80;1.00;;;;;;5058819;28;20052;-82
2023/08/18 06:26:28;;;;;;;2.95;2.30;;;19.80;1.00;;;;;;5057320;28;20114;-80
2023/08/18 06:28:55;;;;;;;3.92;3.03;;;19.80;99.90;;;;;;5058157;28;20086;-81
2023/08/18 06:31:22;;;;;;;3.65;2.90;;;19.80;99.90;;;;;;5056548;28;20110;-81
2023/08/18 06:33:49;;;;;;;2.83;2.50;;;19.80;99.90;;;;;;5059504;28;20075;-82
2023/08/18 06:36:16;;;;;;;3.95;2.78;;;19.90;99.90;;;;;;5060160;28;20833;-80
2023/08/18 06:38:42;;;;;;;2.75;2.28;;;19.90;99.90;;;;;;5041317;28;20082;-81
2023/08/18 06:41:09;;;;;;;2.35;1.77;;;20.00;99.90;;;;;;5058760;28;20048;-81
2023/08/18 06:43:36;;;;;;;2.10;1.83;;;20.00;99.90;;;;;;5018211;28;20149;-78
2023/08/18 06:46:04;;;;;;;2.53;1.90;;;20.10;99.90;;;;;;5058729;28;20419;-78
2023/08/18 06:48:31;;;;;;;2.00;1.60;;;20.20;91.50;;;;;;5085212;28;20055;-79
2023/08/18 06:50:58;;;;;;;2.80;2.47;;;20.40;99.90;;;;;;5058262;28;20049;-79
2023/08/18 06:53:24;;;;;;;3.58;3.03;;;20.40;99.90;;;;;;5055968;28;20496;-79
2023/08/18 06:55:51;;;;;;;2.53;2.17;;;20.50;1.00;;;;;;5049287;28;20052;-80
2023/08/18 06:58:28;;;;;;;2.85;2.22;;;20.50;99.90;;;;;;5047924;28;20056;-80
2023/08/18 07:00:55;;;;;;;3.13;2.30;;;20.60;99.90;;;;;;5053787;28;20478;-80
2023/08/18 07:03:22;;;;;;;2.40;1.88;;;20.60;48.40;;;;;;5055048;28;20594;-79
2023/08/18 07:05:49;;;;;;;2.85;2.45;;;20.70;1.00;;;;;;5040467;28;20063;-79
2023/08/18 07:08:16;;;;;;;3.67;2.60;;;20.70;1.00;;;;;;5046037;28;20053;-80
2023/08/18 07:10:43;;;;;;;2.95;2.42;;;20.70;99.90;;;;;;5057944;28;20129;-80
2023/08/18 07:13:10;;;;;;;2.92;2.38;;;20.70;99.90;;;;;;5063581;28;20817;-82
2023/08/18 07:15:37;;;;;;;2.80;2.25;;;20.70;99.90;;;;;;5064415;28;20055;-80
2023/08/18 07:18:04;;;;;;;2.88;2.58;;;20.70;99.90;;;;;;5065878;28;20052;-79
2023/08/18 07:20:31;;;;;;;3.00;2.35;;;20.60;99.90;;;;;;5064472;28;20052;-81
2023/08/18 07:22:58;;;;;;;2.42;1.90;;;20.60;99.90;;;;;;5093838;28;20058;-80
2023/08/18 07:25:26;;;;;;;3.15;2.17;;;20.60;1.00;;;;;;5063623;28;20505;-80
2023/08/18 07:27:53;;;;;;;3.00;2.70;;;20.60;99.90;;;;;;5059956;28;20040;-77
2023/08/18 07:30:19;;;;;;;2.58;1.92;;;20.50;1.00;;;;;;5080344;28;20367;-91
2023/08/18 07:32:47;;;;;;;2.33;1.77;;;20.50;1.00;;;;;;5073236;28;20045;-91
2023/08/18 07:35:14;;;;;;;2.75;1.85;;;20.50;1.00;;;;;;5071928;28;20070;-89
2023/08/18 07:37:41;;;;;;;2.83;2.55;;;20.60;1.00;;;;;;5064624;28;20044;-91
2023/08/18 07:40:11;;;;;;;2.95;2.67;;;20.50;1.00;;;;;;5096008;28;20044;-88
2023/08/18 07:42:38;;;;;;;2.53;2.33;;;20.50;60.90;;;;;;5073164;28;20044;-91
2023/08/18 07:45:06;;;;;;;2.22;2.03;;;20.50;97.50;;;;;;5091291;28;20049;-92
2023/08/18 07:47:34;;;;;;;1.58;1.38;;;20.50;99.90;;;;;;5109161;28;20420;-93
2023/08/18 07:50:00;;;;;;;3.00;2.20;;;20.60;99.90;;;;;;5094203;28;20266;-90
2023/08/18 07:52:27;;;;;;;2.10;1.73;;;20.60;98.70;;;;;;5075217;28;20454;-90
2023/08/18 07:54:55;;;;;;;2.53;1.77;;;20.60;88.40;;;;;;5075815;28;20056;-91
2023/08/18 07:57:21;;;;;;;1.80;1.30;;;20.60;21.80;;;;;;5074932;28;20110;-90
2023/08/18 07:59:48;;;;;;;1.50;1.30;;;20.70;1.00;;;;;;5073978;28;20059;-91
2023/08/18 08:02:15;;;;;;;1.88;1.58;;;20.70;1.00;;;;;;5071552;28;20109;-90
2023/08/18 08:04:56;;;;;;;1.63;1.15;;;20.70;99.90;;;;;;5075079;28;20080;-90
2023/08/18 08:07:24;;;;;;;1.55;1.20;;;20.80;99.90;;;;;;5075345;28;20049;-91
2023/08/18 08:09:53;;;;;;;1.90;1.50;;;20.80;99.90;;;;;;5076081;28;20220;-90
2023/08/18 08:12:20;;;;;;;2.10;1.40;;;20.80;99.90;;;;;;5073504;28;20052;-91
2023/08/18 08:14:47;;;;;;;1.50;1.20;;;20.70;99.90;;;;;;5075643;28;20383;-90
2023/08/18 08:17:14;;;;;;;2.40;2.03;;;20.70;38.60;;;;;;5107846;28;20044;-90
2023/08/18 08:19:41;;;;;;;1.85;1.42;;;20.60;1.00;;;;;;5106109;28;20055;-91
2023/08/18 08:22:10;;;;;;;2.92;1.90;;;20.70;1.00;;;;;;5073731;28;20064;-91
2023/08/18 08:24:37;;;;;;;2.22;2.03;;;20.70;1.00;;;;;;5073994;28;20528;-90
2023/08/18 08:27:04;;;;;;;3.08;2.10;;;20.60;1.00;;;;;;5073696;28;20053;-89
2023/08/18 08:29:31;;;;;;;3.05;2.20;;;20.60;1.00;;;;;;5107629;28;20102;-90
2023/08/18 08:31:58;;;;;;;2.47;2.03;;;20.60;99.90;;;;;;5108176;28;20056;-91
2023/08/18 08:34:24;;;;;;;3.20;2.38;;;20.60;99.90;;;;;;5076206;28;20056;-89
2023/08/18 08:36:51;;;;;;;2.60;1.95;;;20.60;3.30;;;;;;5059959;28;20110;-91
2023/08/18 08:39:18;;;;;;;2.08;1.77;;;20.60;1.00;;;;;;5073451;28;20084;-90
2023/08/18 08:41:45;;;;;;;2.35;2.00;;;20.60;99.90;;;;;;5073814;28;20499;-90
2023/08/18 08:44:11;;;;;;;3.10;2.13;;;20.60;99.90;;;;;;5073352;28;20087;-90
2023/08/18 08:46:40;;;;;;;2.13;1.70;;;20.60;1.00;;;;;;5071409;28;20102;-90
2023/08/18 08:49:07;;;;;;;3.05;2.45;;;20.60;7.60;;;;;;5071970;28;20422;-90
2023/08/18 08:51:37;;;;;;;3.05;2.72;;;20.60;1.00;;;;;;5057972;28;20496;-88
2023/08/18 08:54:04;;;;;;;3.30;2.40;;;20.50;99.90;;;;;;5057985;28;20048;-88
2023/08/18 08:56:32;;;;;;;3.25;2.95;;;20.50;99.90;;;;;;5087566;28;20054;-89
2023/08/18 08:58:59;;;;;;;2.92;2.30;;;20.50;1.00;;;;;;5086983;28;20453;-88
2023/08/18 09:01:26;;;;;;;3.30;2.67;;;20.40;99.90;;;;;;5050424;28;20056;-90
2023/08/18 09:03:52;;;;;;;2.83;2.33;;;20.40;99.90;;;;;;5060800;28;20052;-86
2023/08/18 09:06:19;;;;;;;3.45;2.90;;;20.40;99.90;;;;;;5063423;28;20067;-88
2023/08/18 09:08:46;;;;;;;3.83;3.10;;;20.40;99.90;;;;;;5072528;28;20048;-87
2023/08/18 09:11:13;;;;;;;3.65;3.28;;;20.30;99.90;;;;;;5066096;28;20084;-89
2023/08/18 09:13:41;;;;;;;3.08;2.72;;;20.30;99.90;;;;;;5103005;28;20044;-87
2023/08/18 09:16:08;;;;;;;3.08;2.50;;;20.30;1.00;;;;;;5072091;28;20052;-88
2023/08/18 09:18:35;;;;;;;3.35;2.83;;;20.40;1.00;;;;;;5069620;28;20101;-87
2023/08/18 09:21:04;;;;;;;3.35;2.97;;;20.40;1.00;;;;;;5070806;28;20056;-84
2023/08/18 09:23:31;;;;;;;3.65;2.90;;;20.40;1.00;;;;;;5103564;28;20124;-89
2023/08/18 09:25:58;;;;;;;3.75;3.15;;;20.30;1.00;;;;;;5105494;28;20105;-88
2023/08/18 09:28:26;;;;;;;3.03;2.72;;;20.30;99.30;;;;;;5072498;28;20048;-87
2023/08/18 09:30:52;;;;;;;3.20;2.83;;;20.30;99.90;;;;;;5106297;28;20040;-87
2023/08/18 09:33:25;;;;;;;3.55;3.03;;;20.40;99.90;;;;;;5072411;28;20364;-87
2023/08/18 09:35:58;;;;;;;3.50;3.05;;;20.40;99.90;;;;;;5071755;28;20118;-87
2023/08/18 09:38:27;;;;;;;3.20;2.78;;;20.40;99.90;;;;;;5072691;28;20480;-86
2023/08/18 09:40:56;;;;;;;4.00;3.65;;;20.50;99.90;;;;;;5071715;28;20048;-87
2023/08/18 09:43:24;;;;;;;4.68;3.42;;;20.50;26.00;;;;;;5103509;28;20068;-87
2023/08/18 09:45:53;;;;;;;3.15;2.60;;;20.50;99.90;;;;;;5069083;28;20053;-88
2023/08/18 09:48:21;;;;;;;3.47;3.17;;;20.50;99.90;;;;;;5068655;28;20059;-87
2023/08/18 09:50:49;;;;;;;4.47;3.05;;;20.50;56.20;;;;;;5088867;28;20117;-88
2023/08/18 09:53:15;;;;;;;3.35;3.05;;;20.60;67.90;;;;;;5038553;28;20051;-89
2023/08/18 09:55:44;;;;;;;3.80;3.20;;;20.70;92.10;;;;;;5066935;28;20504;-89
2023/08/18 09:58:32;;;;;;;4.32;3.92;;;20.80;99.90;;;;;;5081068;28;20053;-89
2023/08/18 10:00:59;;;;;;;4.22;3.83;;;20.90;68.20;;;;;;5043042;28;20075;-90
2023/08/18 10:03:26;;;;;;;4.25;3.67;;;21.00;1.00;;;;;;5069035;28;20037;-88
2023/08/18 10:05:53;;;;;;;3.53;3.22;;;21.00;1.00;;;;;;5099426;28;20102;-89
2023/08/18 10:08:23;;;;;;;3.47;3.17;;;21.10;1.00;;;;;;5052812;28;20040;-90
2023/08/18 10:10:50;;;;;;;4.30;3.90;;;21.10;1.00;;;;;;5072092;28;20052;-91
2023/08/18 10:13:17;;;;;;;3.05;2.75;;;21.10;1.00;;;;;;5072394;28;20056;-90
2023/08/18 10:15:44;;;;;;;3.58;3.15;;;21.10;1.00;;;;;;5056604;28;20076;-90
2023/08/18 10:18:11;;;;;;;3.05;2.75;;;21.10;1.00;;;;;;5071128;28;20048;-89
2023/08/18 10:20:53;;;;;;;3.38;3.03;;;21.10;1.00;;;;;;5073694;28;20049;-89
2023/08/18 10:23:20;;;;;;;3.30;3.00;;;21.20;1.00;;;;;;5065844;28;20049;-90
2023/08/18 10:25:50;;;;;;;3.95;3.35;;;21.40;1.00;;;;;;5070693;28;20044;-91
2023/08/18 10:28:18;;;;;;;3.95;3.38;;;21.50;99.90;;;;;;5050537;28;20060;-90
2023/08/18 10:30:54;;;;;;;3.28;2.90;;;21.70;99.90;;;;;;5067046;28;20098;-90
2023/08/18 10:33:31;;;;;;;4.13;3.20;;;21.70;92.70;;;;;;5061637;28;20048;-90
2023/08/18 10:35:58;;;;;;;3.40;3.10;;;21.80;1.00;;;;;;5054195;28;20102;-91
2023/08/18 10:38:29;;;;;;;3.55;3.25;;;21.90;1.00;;;;;;5058492;28;20399;-90
2023/08/18 10:40:56;;;;;;;3.03;2.70;;;22.00;99.90;;;;;;5075854;28;20059;-88
2023/08/18 10:43:26;;;;;;;4.53;4.00;;;22.10;1.00;;;;;;5075246;28;20040;-91
2023/08/18 10:45:59;;;;;;;3.33;3.03;;;22.10;99.90;;;;;;5069092;28;20041;-90
2023/08/18 10:48:32;;;;;;;3.88;3.50;;;22.00;5.10;;;;;;5075280;28;20100;-91
2023/08/18 10:51:00;;;;;;;3.90;3.60;;;22.10;92.10;;;;;;5043145;28;20044;-92
2023/08/18 10:53:33;;;;;;;4.70;4.10;;;22.20;99.90;;;;;;5090558;28;20056;-92
2023/08/18 10:56:00;;;;;;;4.57;4.18;;;22.20;1.00;;;;;;5040291;28;20106;-90
2023/08/18 10:58:26;;;;;;;5.00;4.50;;;22.30;46.60;;;;;;5039859;28;20057;-92
2023/08/18 11:00:53;;;;;;;5.00;4.53;;;22.30;99.90;;;;;;5075162;28;20109;-90
2023/08/18 11:03:20;;;;;;;5.85;5.10;;;22.20;99.90;;;;;;5060267;28;20048;-92
2023/08/18 11:05:47;;;;;;;6.95;6.35;;;22.30;99.90;;;;;;5075314;28;20072;-92
2023/08/18 11:08:14;;;;;;;5.93;5.20;;;22.40;1.00;;;;;;5053765;28;20407;-94
2023/08/18 11:10:42;;;;;;;7.40;6.28;;;22.60;99.90;;;;;;5099820;28;20049;-90
2023/08/18 11:13:28;;;;;;;5.53;5.03;;;22.80;99.90;;;;;;5065503;28;20211;-93
2023/08/18 11:15:56;;;;;;;7.07;6.38;;;22.90;1.00;;;;;;5072826;28;20533;-91
2023/08/18 11:18:23;;;;;;;7.65;6.95;;;22.90;99.90;;;;;;5038675;28;20037;-92
2023/08/18 11:20:53;;;;;;;7.55;6.85;;;23.00;99.90;;;;;;5057833;28;20052;-85
2023/08/18 11:23:20;;;;;;;9.23;8.35;;;23.10;99.90;;;;;;5067360;28;20120;-91
2023/08/18 11:25:47;;;;;;;7.40;6.57;;;23.00;99.90;;;;;;5075244;28;20083;-91
2023/08/18 11:28:14;;;;;;;6.22;5.63;;;23.00;99.90;;;;;;5056946;28;20079;-91
2023/08/18 11:30:41;;;;;;;6.30;5.70;;;23.20;99.90;;;;;;5072963;28;20105;-90
2023/08/18 11:33:08;;;;;;;5.88;5.38;;;23.30;1.00;;;;;;5073613;28;20131;-91
2023/08/18 11:35:34;;;;;;;7.75;6.80;;;23.40;1.00;;;;;;5075174;28;20098;-91
2023/08/18 11:38:01;;;;;;;8.20;7.50;;;23.50;99.90;;;;;;5057488;28;20053;-93
2023/08/18 11:40:28;;;;;;;7.97;7.18;;;23.30;99.90;;;;;;5072445;28;20049;-91
2023/08/18 11:42:57;;;;;;;6.25;5.50;;;23.30;99.90;;;;;;5074236;28;20052;-90
2023/08/18 11:45:24;;;;;;;6.45;5.82;;;23.30;99.90;;;;;;5109643;28;20133;-90
2023/08/18 11:47:59;;;;;;;6.82;6.22;;;23.80;1.00;;;;;;5106275;28;20140;-91
2023/08/18 11:50:37;;;;;;;7.10;6.40;;;24.10;99.90;;;;;;5104412;28;20220;-90
2023/08/18 11:53:04;;;;;;;6.82;6.13;;;24.10;1.00;;;;;;5098572;28;20057;-90
2023/08/18 11:55:42;;;;;;;6.95;6.30;;;24.00;1.00;;;;;;5088932;28;20429;-92
2023/08/18 11:58:11;;;;;;;6.13;5.53;;;24.30;1.00;;;;;;5103732;28;20048;-91
2023/08/18 12:00:38;;;;;;;5.32;4.82;;;24.30;99.90;;;;;;5072040;28;20114;-93
2023/08/18 12:03:07;;;;;;;6.63;6.03;;;24.40;99.90;;;;;;5082958;28;20053;-91
2023/08/18 12:05:37;;;;;;;6.60;6.00;;;24.60;99.90;;;;;;5071722;28;20083;-92
2023/08/18 12:08:09;;;;;;;5.68;5.07;;;24.80;99.90;;;;;;5073698;28;20056;-90
2023/08/18 12:10:36;;;;;;;5.17;4.67;;;24.80;99.90;;;;;;5072217;28;20056;-90
2023/08/18 12:13:03;;;;;;;5.93;5.32;;;25.20;99.90;;;;;;5069741;28;20305;-92
2023/08/18 12:15:30;;;;;;;6.68;6.07;;;25.30;99.90;;;;;;5070649;28;20152;-90
2023/08/18 12:17:57;;;;;;;6.93;5.63;;;25.60;99.90;;;;;;5070867;28;20674;-91
2023/08/18 12:20:24;;;;;;;4.35;3.78;;;25.80;99.90;;;;;;5054368;28;20052;-90
2023/08/18 12:22:51;;;;;;;6.95;6.30;;;25.90;99.90;;;;;;5070657;28;20052;-90
2023/08/18 12:25:19;;;;;;;5.63;5.13;;;25.80;99.90;;;;;;5070961;28;20059;-90
2023/08/18 12:27:46;;;;;;;5.68;4.78;;;25.60;99.90;;;;;;5070616;28;20056;-90
2023/08/18 12:30:14;;;;;;;5.15;4.75;;;26.00;99.90;;;;;;5056238;28;20048;-90
2023/08/18 12:32:42;;;;;;;4.65;4.25;;;26.20;99.90;;;;;;5071891;28;20060;-87
2023/08/18 12:35:09;;;;;;;6.25;5.40;;;26.30;99.90;;;;;;5072962;28;20048;-90
2023/08/18 12:37:35;;;;;;;6.05;5.45;;;26.20;99.90;;;;;;5087241;28;20048;-91
2023/08/18 12:40:05;;;;;;;5.72;5.22;;;26.00;99.90;;;;;;5067388;28;20159;-90
2023/08/18 12:42:32;;;;;;;4.82;4.40;;;26.00;99.90;;;;;;5058770;28;20052;-90
2023/08/18 12:44:59;;;;;;;4.18;3.78;;;26.20;99.90;;;;;;5070485;28;20044;-90
2023/08/18 12:47:26;;;;;;;4.25;3.85;;;26.50;99.90;;;;;;5034791;28;20049;-89
2023/08/18 12:49:53;;;;;;;4.10;3.70;;;26.70;99.90;;;;;;5052113;28;20091;-90
2023/08/18 12:52:20;;;;;;;4.35;3.95;;;26.80;99.90;;;;;;5059490;28;20141;-90